NKS1833 KDTW-KDFW
Flight info
| Callsign | NKS1833 |
|---|---|
| Flight time | N/A |
| Altitude | 36000 |
| Route | SNDRS3 BGHRT STL RZC FSM RRNET BRDJE5 |
| Aircraft | A20N/M-SDE2E3FGHIRWXY/LB1 |
Departure
| Time | 2026-05-05 22:54 |
|---|---|
| Airport | Detroit Metropolitan Wayne County Airport (KDTW) |
Arrival
| Time | N/A |
|---|---|
| Airport | Dallas Fort Worth International Airport (KDFW) |
| Time | Latitude | Longitude | Altitude | Speed | Heading |
|---|---|---|---|---|---|
| 2026-05-05 22:50 | 42.22067 | -83.34344 | 646 ft | 19 kts | 28° |
| 2026-05-05 22:50 | 42.22136 | -83.34294 | 647 ft | 20 kts | 28° |
| 2026-05-05 22:50 | 42.22263 | -83.34203 | 645 ft | 21 kts | 28° |
| 2026-05-05 22:50 | 42.22395 | -83.34106 | 647 ft | 22 kts | 20° |
| 2026-05-05 22:51 | 42.22524 | -83.34015 | 646 ft | 21 kts | 31° |
| 2026-05-05 22:51 | 42.22653 | -83.33905 | 647 ft | 23 kts | 32° |
| 2026-05-05 22:51 | 42.22769 | -83.33820 | 645 ft | 17 kts | 25° |
| 2026-05-05 22:51 | 42.22847 | -83.33746 | 646 ft | 10 kts | 68° |
| 2026-05-05 22:52 | 42.22822 | -83.33653 | 644 ft | 11 kts | 154° |
| 2026-05-05 22:52 | 42.22762 | -83.33665 | 645 ft | 0 kts | 208° |
| 2026-05-05 22:52 | 42.22761 | -83.33666 | 645 ft | 0 kts | 208° |
| 2026-05-05 22:53 | 42.22757 | -83.33669 | 645 ft | 3 kts | 208° |
| 2026-05-05 22:53 | 42.22524 | -83.33841 | 647 ft | 77 kts | 210° |
| 2026-05-05 22:53 | 42.21867 | -83.34333 | 646 ft | 137 kts | 208° |
| 2026-05-05 22:53 | 42.20945 | -83.35045 | 848 ft | 169 kts | 212° |
| 2026-05-05 22:54 | 42.19853 | -83.35807 | 1427 ft | 186 kts | 203° |
| 2026-05-05 22:54 | 42.18544 | -83.36227 | 2115 ft | 199 kts | 188° |
| 2026-05-05 22:54 | 42.17110 | -83.36165 | 2785 ft | 214 kts | 174° |
| 2026-05-05 22:54 | 42.15639 | -83.35584 | 3478 ft | 226 kts | 160° |
| 2026-05-05 22:55 | 42.14279 | -83.34519 | 4225 ft | 237 kts | 147° |
| 2026-05-05 22:55 | 42.13132 | -83.33083 | 4961 ft | 246 kts | 136° |
| 2026-05-05 22:55 | 42.12156 | -83.31203 | 5744 ft | 256 kts | 127° |
| 2026-05-05 22:55 | 42.11043 | -83.29403 | 6214 ft | 262 kts | 152° |
| 2026-05-05 22:56 | 42.09461 | -83.28468 | 6612 ft | 262 kts | 180° |
| 2026-05-05 22:56 | 42.07752 | -83.28588 | 6917 ft | 253 kts | 204° |
| 2026-05-05 22:56 | 42.06317 | -83.29714 | 6998 ft | 242 kts | 229° |
| 2026-05-05 22:56 | 42.05347 | -83.31458 | 7007 ft | 240 kts | 242° |
| 2026-05-05 22:57 | 42.04623 | -83.33339 | 7023 ft | 239 kts | 245° |
| 2026-05-05 22:57 | 42.03929 | -83.35282 | 7022 ft | 237 kts | 245° |
| 2026-05-05 22:57 | 42.03351 | -83.36894 | 7023 ft | 237 kts | 245° |
| 2026-05-05 22:57 | 42.02654 | -83.38831 | 7024 ft | 238 kts | 245° |
| 2026-05-05 22:58 | 42.01978 | -83.40711 | 7023 ft | 238 kts | 245° |
| 2026-05-05 22:58 | 42.01269 | -83.42677 | 7023 ft | 238 kts | 245° |
| 2026-05-05 22:58 | 42.00559 | -83.44642 | 7032 ft | 235 kts | 244° |
| 2026-05-05 22:58 | 41.99858 | -83.46582 | 7017 ft | 236 kts | 244° |
| 2026-05-05 22:59 | 41.99086 | -83.48424 | 7052 ft | 238 kts | 236° |
| 2026-05-05 22:59 | 41.97990 | -83.50080 | 7431 ft | 243 kts | 225° |
| 2026-05-05 22:59 | 41.96677 | -83.51439 | 8322 ft | 244 kts | 221° |
| 2026-05-05 22:59 | 41.95360 | -83.52778 | 9196 ft | 246 kts | 222° |
| 2026-05-05 23:00 | 41.92648 | -83.55612 | 10420 ft | 269 kts | 222° |
| 2026-05-05 23:00 | 41.91144 | -83.57183 | 10656 ft | 292 kts | 221° |
| 2026-05-05 23:00 | 41.89680 | -83.58700 | 11000 ft | 305 kts | 221° |
| 2026-05-05 23:01 | 41.87979 | -83.60448 | 11763 ft | 309 kts | 221° |
| 2026-05-05 23:01 | 41.86293 | -83.62176 | 12467 ft | 314 kts | 221° |
| 2026-05-05 23:01 | 41.84575 | -83.63940 | 13184 ft | 319 kts | 221° |
| 2026-05-05 23:01 | 41.82889 | -83.65670 | 13859 ft | 323 kts | 221° |
| 2026-05-05 23:02 | 41.81338 | -83.67262 | 14503 ft | 323 kts | 220° |
| 2026-05-05 23:02 | 41.79628 | -83.69015 | 15311 ft | 321 kts | 220° |
| 2026-05-05 23:02 | 41.77912 | -83.70775 | 15944 ft | 325 kts | 220° |
| 2026-05-05 23:02 | 41.76174 | -83.72557 | 16589 ft | 328 kts | 220° |
| 2026-05-05 23:03 | 41.74370 | -83.74405 | 17273 ft | 330 kts | 220° |
| 2026-05-05 23:03 | 41.72571 | -83.76247 | 17931 ft | 333 kts | 220° |
| 2026-05-05 23:03 | 41.70774 | -83.78084 | 18510 ft | 336 kts | 220° |
| 2026-05-05 23:03 | 41.68840 | -83.79854 | 19058 ft | 341 kts | 214° |
| 2026-05-05 23:04 | 41.66815 | -83.81468 | 19613 ft | 344 kts | 214° |
| 2026-05-05 23:04 | 41.64771 | -83.83104 | 20154 ft | 347 kts | 215° |
| 2026-05-05 23:04 | 41.62819 | -83.84670 | 20658 ft | 351 kts | 215° |
| 2026-05-05 23:04 | 41.60720 | -83.86355 | 21157 ft | 354 kts | 215° |
| 2026-05-05 23:05 | 41.58618 | -83.88042 | 21628 ft | 359 kts | 216° |
| 2026-05-05 23:05 | 41.56510 | -83.89731 | 22178 ft | 361 kts | 216° |
| 2026-05-05 23:05 | 41.54417 | -83.91406 | 22710 ft | 364 kts | 216° |
| 2026-05-05 23:05 | 41.52340 | -83.93067 | 23082 ft | 370 kts | 216° |
| 2026-05-05 23:06 | 41.50222 | -83.94759 | 23551 ft | 373 kts | 217° |
| 2026-05-05 23:06 | 41.48053 | -83.96490 | 24018 ft | 374 kts | 217° |
| 2026-05-05 23:06 | 41.45859 | -83.98240 | 24474 ft | 376 kts | 217° |
| 2026-05-05 23:06 | 41.43713 | -83.99952 | 24885 ft | 378 kts | 217° |
| 2026-05-05 23:07 | 41.41569 | -84.01661 | 25295 ft | 380 kts | 217° |
| 2026-05-05 23:07 | 41.39346 | -84.03431 | 25673 ft | 382 kts | 217° |
| 2026-05-05 23:07 | 41.37159 | -84.05173 | 26044 ft | 385 kts | 217° |
| 2026-05-05 23:07 | 41.34897 | -84.06972 | 26455 ft | 387 kts | 217° |
| 2026-05-05 23:08 | 41.32722 | -84.08700 | 26831 ft | 389 kts | 218° |
| 2026-05-05 23:08 | 41.30449 | -84.10505 | 27215 ft | 391 kts | 218° |
| 2026-05-05 23:08 | 41.28195 | -84.12339 | 27585 ft | 389 kts | 221° |
| 2026-05-05 23:08 | 41.26319 | -84.14401 | 27904 ft | 384 kts | 231° |
| 2026-05-05 23:09 | 41.24707 | -84.16964 | 28236 ft | 379 kts | 240° |
| 2026-05-05 23:09 | 41.23509 | -84.19777 | 28557 ft | 376 kts | 249° |
| 2026-05-05 23:09 | 41.22586 | -84.22853 | 28896 ft | 377 kts | 251° |
| 2026-05-05 23:09 | 41.21651 | -84.26018 | 29238 ft | 378 kts | 251° |
| 2026-05-05 23:10 | 41.20698 | -84.29216 | 29597 ft | 380 kts | 251° |
| 2026-05-05 23:10 | 41.19741 | -84.32414 | 29904 ft | 381 kts | 251° |
| 2026-05-05 23:10 | 41.18778 | -84.35622 | 30203 ft | 382 kts | 251° |
| 2026-05-05 23:10 | 41.17838 | -84.38748 | 30536 ft | 381 kts | 252° |
| 2026-05-05 23:11 | 41.16878 | -84.41938 | 30895 ft | 381 kts | 252° |
| 2026-05-05 23:11 | 41.15960 | -84.44984 | 31259 ft | 379 kts | 252° |
| 2026-05-05 23:11 | 41.15040 | -84.48029 | 31714 ft | 375 kts | 253° |
| 2026-05-05 23:11 | 41.14113 | -84.51093 | 32208 ft | 371 kts | 253° |
| 2026-05-05 23:12 | 41.13199 | -84.54108 | 32691 ft | 367 kts | 254° |
| 2026-05-05 23:12 | 41.12276 | -84.57153 | 33149 ft | 363 kts | 255° |
| 2026-05-05 23:12 | 41.11356 | -84.60188 | 33608 ft | 359 kts | 255° |
| 2026-05-05 23:12 | 41.10491 | -84.63182 | 34009 ft | 352 kts | 258° |
| 2026-05-05 23:13 | 41.09812 | -84.66266 | 34263 ft | 348 kts | 262° |
| 2026-05-05 23:13 | 41.09307 | -84.69317 | 34579 ft | 345 kts | 263° |
| 2026-05-05 23:13 | 41.08825 | -84.72236 | 34819 ft | 344 kts | 263° |
| 2026-05-05 23:13 | 41.08319 | -84.75259 | 35000 ft | 345 kts | 263° |
| 2026-05-05 23:14 | 41.07808 | -84.78293 | 35182 ft | 345 kts | 263° |
| 2026-05-05 23:14 | 41.07293 | -84.81341 | 35374 ft | 346 kts | 263° |
| 2026-05-05 23:14 | 41.06783 | -84.84358 | 35578 ft | 346 kts | 263° |
| 2026-05-05 23:14 | 41.06269 | -84.87385 | 35770 ft | 346 kts | 263° |
| 2026-05-05 23:15 | 41.05754 | -84.90419 | 35885 ft | 346 kts | 263° |
| 2026-05-05 23:15 | 41.05243 | -84.93424 | 35888 ft | 345 kts | 263° |
| 2026-05-05 23:15 | 41.04266 | -84.99155 | 35888 ft | 344 kts | 263° |
| 2026-05-05 23:16 | 41.03324 | -85.04669 | 35891 ft | 345 kts | 263° |
| 2026-05-05 23:16 | 41.02316 | -85.10544 | 35889 ft | 343 kts | 263° |
| 2026-05-05 23:17 | 41.01278 | -85.16582 | 35887 ft | 346 kts | 263° |
| 2026-05-05 23:17 | 41.00307 | -85.22196 | 35887 ft | 345 kts | 263° |
| 2026-05-05 23:18 | 40.99266 | -85.28202 | 35888 ft | 345 kts | 263° |
| 2026-05-05 23:18 | 40.98222 | -85.34211 | 35889 ft | 345 kts | 263° |
| 2026-05-05 23:19 | 40.97246 | -85.39812 | 35887 ft | 345 kts | 263° |
| 2026-05-05 23:19 | 40.96190 | -85.45848 | 35887 ft | 345 kts | 263° |
| 2026-05-05 23:20 | 40.95214 | -85.51412 | 35887 ft | 344 kts | 263° |
| 2026-05-05 23:20 | 40.94245 | -85.56923 | 35886 ft | 344 kts | 263° |
| 2026-05-05 23:21 | 40.93198 | -85.62850 | 35887 ft | 344 kts | 263° |
| 2026-05-05 23:21 | 40.92129 | -85.68883 | 35888 ft | 344 kts | 263° |
| 2026-05-05 23:22 | 40.91170 | -85.74283 | 35890 ft | 344 kts | 263° |
| 2026-05-05 23:22 | 40.90101 | -85.80283 | 35897 ft | 345 kts | 263° |
| 2026-05-05 23:23 | 40.89030 | -85.86272 | 35904 ft | 346 kts | 263° |
| 2026-05-05 23:23 | 40.88137 | -85.92452 | 35897 ft | 343 kts | 267° |
| 2026-05-05 23:24 | 40.87482 | -85.98695 | 35891 ft | 343 kts | 266° |
| 2026-05-05 23:24 | 40.86819 | -86.04917 | 35890 ft | 342 kts | 266° |
| 2026-05-05 23:25 | 40.86150 | -86.11133 | 35888 ft | 342 kts | 266° |
| 2026-05-05 23:25 | 40.85479 | -86.17344 | 35893 ft | 342 kts | 266° |
| 2026-05-05 23:26 | 40.84813 | -86.23471 | 35873 ft | 339 kts | 266° |
| 2026-05-05 23:26 | 40.84173 | -86.29333 | 35887 ft | 341 kts | 266° |
| 2026-05-05 23:27 | 40.83493 | -86.35533 | 35886 ft | 340 kts | 266° |
| 2026-05-05 23:27 | 40.82811 | -86.41713 | 35887 ft | 341 kts | 266° |
| 2026-05-05 23:28 | 40.82240 | -86.46864 | 35881 ft | 341 kts | 266° |
| 2026-05-05 23:28 | 40.81552 | -86.53041 | 35886 ft | 341 kts | 266° |
| 2026-05-05 23:29 | 40.80860 | -86.59229 | 35892 ft | 340 kts | 266° |
| 2026-05-05 23:29 | 40.80051 | -86.66415 | 35902 ft | 340 kts | 266° |
| 2026-05-05 23:30 | 40.79467 | -86.71579 | 35891 ft | 340 kts | 266° |
| 2026-05-05 23:30 | 40.78771 | -86.77707 | 35899 ft | 340 kts | 266° |
| 2026-05-05 23:31 | 40.78067 | -86.83873 | 35894 ft | 339 kts | 266° |
| 2026-05-05 23:31 | 40.77362 | -86.90019 | 35891 ft | 339 kts | 266° |
| 2026-05-05 23:32 | 40.76653 | -86.96173 | 35902 ft | 339 kts | 266° |
| 2026-05-05 23:32 | 40.75945 | -87.02290 | 35898 ft | 338 kts | 265° |
| 2026-05-05 23:33 | 40.75242 | -87.08337 | 35898 ft | 338 kts | 265° |
| 2026-05-05 23:33 | 40.74525 | -87.14469 | 35899 ft | 338 kts | 265° |
| 2026-05-05 23:34 | 40.73804 | -87.20603 | 35899 ft | 338 kts | 265° |
| 2026-05-05 23:34 | 40.73081 | -87.26733 | 35894 ft | 338 kts | 265° |
| 2026-05-05 23:35 | 40.72357 | -87.32841 | 35901 ft | 338 kts | 265° |
| 2026-05-05 23:35 | 40.71629 | -87.38953 | 35907 ft | 338 kts | 265° |
| 2026-05-05 23:36 | 40.70900 | -87.45046 | 35908 ft | 337 kts | 265° |
| 2026-05-05 23:36 | 40.70191 | -87.50936 | 35904 ft | 337 kts | 265° |
| 2026-05-05 23:37 | 40.69472 | -87.56893 | 35907 ft | 337 kts | 265° |
| 2026-05-05 23:37 | 40.68734 | -87.62977 | 35906 ft | 337 kts | 265° |
| 2026-05-05 23:38 | 40.67993 | -87.69058 | 35905 ft | 337 kts | 265° |
| 2026-05-05 23:38 | 40.67252 | -87.75116 | 35910 ft | 336 kts | 265° |
| 2026-05-05 23:39 | 40.66501 | -87.81223 | 35908 ft | 336 kts | 265° |
| 2026-05-05 23:39 | 40.65715 | -87.87250 | 35902 ft | 337 kts | 261° |
| 2026-05-05 23:40 | 40.64126 | -87.93109 | 35899 ft | 345 kts | 252° |
| 2026-05-05 23:40 | 40.61504 | -87.98508 | 35895 ft | 358 kts | 241° |
| 2026-05-05 23:41 | 40.58166 | -88.03451 | 35889 ft | 361 kts | 240° |
| 2026-05-05 23:41 | 40.54897 | -88.08296 | 35887 ft | 361 kts | 240° |
| 2026-05-05 23:42 | 40.51572 | -88.13217 | 35900 ft | 360 kts | 239° |
| 2026-05-05 23:42 | 40.48234 | -88.18141 | 35899 ft | 360 kts | 239° |
| 2026-05-05 23:43 | 40.44900 | -88.23048 | 35895 ft | 360 kts | 239° |
| 2026-05-05 23:43 | 40.41655 | -88.27819 | 35892 ft | 360 kts | 239° |
| 2026-05-05 23:44 | 40.38353 | -88.32666 | 35892 ft | 360 kts | 239° |
| 2026-05-05 23:44 | 40.35132 | -88.37386 | 35891 ft | 361 kts | 239° |
| 2026-05-05 23:45 | 40.31836 | -88.42208 | 35888 ft | 361 kts | 239° |
| 2026-05-05 23:45 | 40.28590 | -88.46951 | 35896 ft | 361 kts | 239° |
| 2026-05-05 23:46 | 40.25394 | -88.51614 | 35904 ft | 361 kts | 239° |
| 2026-05-05 23:46 | 40.22112 | -88.56391 | 35899 ft | 361 kts | 239° |
| 2026-05-05 23:47 | 40.18789 | -88.61224 | 35905 ft | 361 kts | 239° |
| 2026-05-05 23:47 | 40.15535 | -88.65947 | 35905 ft | 361 kts | 239° |
| 2026-05-05 23:48 | 40.12228 | -88.70742 | 35907 ft | 362 kts | 239° |
| 2026-05-05 23:48 | 40.08912 | -88.75541 | 35907 ft | 362 kts | 239° |
| 2026-05-05 23:49 | 40.05595 | -88.80334 | 35907 ft | 362 kts | 239° |
| 2026-05-05 23:49 | 40.02359 | -88.85001 | 35851 ft | 362 kts | 239° |
| 2026-05-05 23:50 | 39.99055 | -88.89762 | 35904 ft | 361 kts | 238° |
| 2026-05-05 23:50 | 39.95759 | -88.94502 | 35904 ft | 361 kts | 238° |
| 2026-05-05 23:51 | 39.92529 | -88.99141 | 35904 ft | 361 kts | 238° |
| 2026-05-05 23:51 | 39.89288 | -89.03789 | 35904 ft | 361 kts | 238° |
| 2026-05-05 23:52 | 39.85983 | -89.08519 | 35917 ft | 361 kts | 238° |
| 2026-05-05 23:52 | 39.82847 | -89.13002 | 35915 ft | 361 kts | 238° |
| 2026-05-05 23:53 | 39.79539 | -89.17724 | 35876 ft | 360 kts | 238° |
| 2026-05-05 23:53 | 39.76239 | -89.22427 | 35894 ft | 360 kts | 238° |
| 2026-05-05 23:54 | 39.72901 | -89.27180 | 35908 ft | 360 kts | 238° |
| 2026-05-05 23:54 | 39.69868 | -89.31488 | 35907 ft | 360 kts | 238° |
| 2026-05-05 23:55 | 39.66603 | -89.36120 | 35907 ft | 360 kts | 238° |
| 2026-05-05 23:55 | 39.63260 | -89.40857 | 35907 ft | 360 kts | 238° |
| 2026-05-05 23:56 | 39.59912 | -89.45592 | 35908 ft | 360 kts | 238° |
| 2026-05-05 23:56 | 39.56616 | -89.50247 | 35893 ft | 359 kts | 238° |
| 2026-05-05 23:57 | 39.53318 | -89.54898 | 35896 ft | 360 kts | 238° |
| 2026-05-05 23:57 | 39.50057 | -89.59491 | 35902 ft | 360 kts | 238° |
| 2026-05-05 23:58 | 39.46752 | -89.64137 | 35906 ft | 361 kts | 237° |
| 2026-05-05 23:58 | 39.43413 | -89.68825 | 35910 ft | 361 kts | 237° |
| 2026-05-05 23:59 | 39.40099 | -89.73471 | 35918 ft | 361 kts | 237° |
| 2026-05-05 23:59 | 39.36750 | -89.78158 | 35919 ft | 362 kts | 237° |
| 2026-05-06 00:00 | 39.33407 | -89.82829 | 35910 ft | 361 kts | 237° |
| 2026-05-06 00:00 | 39.30049 | -89.87515 | 35917 ft | 362 kts | 237° |
| 2026-05-06 00:01 | 39.26677 | -89.92214 | 35917 ft | 362 kts | 237° |
| 2026-05-06 00:01 | 39.23326 | -89.96875 | 35920 ft | 362 kts | 237° |
| 2026-05-06 00:02 | 39.20174 | -90.01254 | 35935 ft | 363 kts | 237° |
| 2026-05-06 00:02 | 39.16810 | -90.05920 | 35940 ft | 363 kts | 237° |
| 2026-05-06 00:03 | 39.13485 | -90.10524 | 35943 ft | 363 kts | 237° |
| 2026-05-06 00:03 | 39.10124 | -90.15171 | 35925 ft | 362 kts | 237° |
| 2026-05-06 00:04 | 39.06746 | -90.19836 | 35929 ft | 362 kts | 237° |
| 2026-05-06 00:04 | 39.03377 | -90.24482 | 35920 ft | 363 kts | 237° |
| 2026-05-06 00:05 | 38.98284 | -90.31490 | 35919 ft | 363 kts | 237° |
| 2026-05-06 00:06 | 38.94919 | -90.36113 | 35921 ft | 363 kts | 237° |
| 2026-05-06 00:06 | 38.91575 | -90.40702 | 35925 ft | 363 kts | 236° |
| 2026-05-06 00:07 | 38.88274 | -90.45224 | 35898 ft | 362 kts | 237° |
| 2026-05-06 00:07 | 38.84917 | -90.49845 | 35910 ft | 360 kts | 238° |
| 2026-05-06 00:08 | 38.81732 | -90.54542 | 35910 ft | 359 kts | 239° |
| 2026-05-06 00:08 | 38.78557 | -90.59265 | 35923 ft | 360 kts | 238° |
| 2026-05-06 00:09 | 38.75314 | -90.64045 | 35927 ft | 360 kts | 238° |
| 2026-05-06 00:09 | 38.72037 | -90.68854 | 35926 ft | 360 kts | 238° |
| 2026-05-06 00:10 | 38.68833 | -90.73544 | 35923 ft | 360 kts | 238° |
| 2026-05-06 00:10 | 38.65617 | -90.78245 | 35926 ft | 359 kts | 238° |
| 2026-05-06 00:11 | 38.62550 | -90.82717 | 35936 ft | 359 kts | 238° |
| 2026-05-06 00:11 | 38.59282 | -90.87480 | 35924 ft | 359 kts | 238° |
| 2026-05-06 00:12 | 38.56130 | -90.92066 | 35925 ft | 359 kts | 238° |
| 2026-05-06 00:12 | 38.53562 | -90.95798 | 35933 ft | 359 kts | 238° |
| 2026-05-06 00:13 | 38.49844 | -91.01192 | 35935 ft | 359 kts | 238° |
| 2026-05-06 00:13 | 38.46758 | -91.05662 | 35932 ft | 358 kts | 238° |
| 2026-05-06 00:14 | 38.44055 | -91.09572 | 35926 ft | 358 kts | 238° |
| 2026-05-06 00:14 | 38.41124 | -91.13808 | 35946 ft | 358 kts | 238° |
| 2026-05-06 00:15 | 38.37871 | -91.18503 | 35964 ft | 358 kts | 238° |
| 2026-05-06 00:15 | 38.34693 | -91.23081 | 35969 ft | 358 kts | 238° |
| 2026-05-06 00:16 | 38.31671 | -91.27429 | 35970 ft | 357 kts | 238° |
| 2026-05-06 00:16 | 38.28693 | -91.31708 | 35965 ft | 357 kts | 238° |
| 2026-05-06 00:17 | 38.25507 | -91.36280 | 35950 ft | 356 kts | 238° |
| 2026-05-06 00:17 | 38.22268 | -91.40919 | 35941 ft | 356 kts | 238° |
| 2026-05-06 00:18 | 38.19034 | -91.45547 | 35939 ft | 356 kts | 238° |
| 2026-05-06 00:18 | 38.15829 | -91.50123 | 35922 ft | 355 kts | 238° |
| 2026-05-06 00:19 | 38.12655 | -91.54654 | 35933 ft | 355 kts | 238° |
| 2026-05-06 00:19 | 38.09595 | -91.59015 | 35937 ft | 355 kts | 238° |
| 2026-05-06 00:20 | 38.06376 | -91.63594 | 35934 ft | 355 kts | 238° |
| 2026-05-06 00:20 | 38.03515 | -91.67658 | 35937 ft | 355 kts | 238° |
| 2026-05-06 00:21 | 38.00289 | -91.72234 | 35932 ft | 354 kts | 238° |
| 2026-05-06 00:21 | 37.97045 | -91.76830 | 35927 ft | 354 kts | 238° |
| 2026-05-06 00:22 | 37.93828 | -91.81383 | 35890 ft | 355 kts | 238° |
| 2026-05-06 00:22 | 37.90615 | -91.85921 | 35908 ft | 354 kts | 238° |
| 2026-05-06 00:23 | 37.87360 | -91.90513 | 35902 ft | 354 kts | 238° |
| 2026-05-06 00:23 | 37.84127 | -91.95067 | 35905 ft | 354 kts | 238° |
| 2026-05-06 00:24 | 37.81009 | -91.99454 | 35907 ft | 353 kts | 238° |
| 2026-05-06 00:24 | 37.77950 | -92.03752 | 35906 ft | 354 kts | 238° |
| 2026-05-06 00:25 | 37.74725 | -92.08276 | 35906 ft | 353 kts | 238° |
| 2026-05-06 00:25 | 37.71514 | -92.12774 | 35903 ft | 353 kts | 238° |
| 2026-05-06 00:26 | 37.68261 | -92.17325 | 35895 ft | 352 kts | 238° |
| 2026-05-06 00:26 | 37.65037 | -92.21830 | 35896 ft | 353 kts | 238° |
| 2026-05-06 00:27 | 37.61911 | -92.26192 | 35890 ft | 353 kts | 238° |
| 2026-05-06 00:27 | 37.58891 | -92.30401 | 35903 ft | 353 kts | 237° |
| 2026-05-06 00:28 | 37.55634 | -92.34932 | 35906 ft | 353 kts | 237° |
| 2026-05-06 00:28 | 37.52359 | -92.39481 | 35921 ft | 353 kts | 237° |
| 2026-05-06 00:29 | 37.49133 | -92.43956 | 35921 ft | 353 kts | 237° |
| 2026-05-06 00:29 | 37.45947 | -92.48371 | 35920 ft | 353 kts | 237° |
| 2026-05-06 00:30 | 37.42766 | -92.52772 | 35905 ft | 352 kts | 237° |
| 2026-05-06 00:30 | 37.39526 | -92.57250 | 35903 ft | 352 kts | 237° |